createdAt,value
2023-02-13T00:02:00.974Z,7.60
2023-02-13T00:04:02.955Z,7.60
2023-02-13T00:06:13.723Z,7.60
2023-02-13T00:08:15.623Z,7.70
2023-02-13T00:10:19.868Z,7.70
2023-02-13T00:12:21.641Z,7.60
2023-02-13T00:14:23.565Z,7.70
2023-02-13T00:16:25.291Z,7.60
2023-02-13T00:18:28.965Z,7.60
2023-02-13T00:20:30.756Z,7.60
2023-02-13T00:22:37.234Z,7.70
2023-02-13T00:24:39.049Z,7.70
2023-02-13T00:26:42.946Z,7.70
2023-02-13T00:28:46.127Z,7.70
2023-02-13T00:30:47.970Z,7.70
2023-02-13T00:32:49.783Z,7.70
2023-02-13T00:34:58.844Z,7.70
2023-02-13T00:37:00.706Z,7.70
2023-02-13T00:39:12.360Z,7.70
2023-02-13T00:41:19.998Z,7.80
2023-02-13T00:43:22.660Z,7.70
2023-02-13T00:45:26.941Z,7.70
2023-02-13T00:47:34.453Z,7.70
2023-02-13T00:49:36.185Z,7.60
2023-02-13T00:51:40.772Z,7.70
2023-02-13T00:53:42.586Z,7.70
2023-02-13T00:55:45.805Z,7.70
2023-02-13T00:57:47.538Z,7.70
2023-02-13T00:59:50.986Z,7.70
2023-02-13T01:01:53.098Z,7.70
2023-02-13T01:03:54.910Z,7.80
2023-02-13T01:05:58.321Z,7.80
2023-02-13T01:08:00.784Z,7.80
2023-02-13T01:10:02.670Z,7.80
2023-02-13T01:12:04.592Z,7.80
2023-02-13T01:14:06.953Z,7.80
2023-02-13T01:16:11.606Z,7.90
2023-02-13T01:18:15.235Z,7.90
2023-02-13T01:20:17.062Z,7.90
2023-02-13T01:22:22.473Z,7.90
2023-02-13T01:24:24.192Z,8.00
2023-02-13T01:26:29.121Z,8.00
2023-02-13T01:28:30.920Z,8.00
2023-02-13T01:30:32.726Z,8.00
2023-02-13T01:32:36.607Z,8.00
2023-02-13T01:34:38.515Z,8.00
2023-02-13T01:36:40.539Z,8.00
2023-02-13T01:38:45.119Z,8.00
2023-02-13T01:40:48.664Z,7.90
2023-02-13T01:42:50.395Z,7.90
2023-02-13T01:44:58.037Z,7.90
2023-02-13T01:47:00.166Z,7.90
2023-02-13T01:49:19.593Z,7.90
2023-02-13T01:51:29.923Z,7.90
2023-02-13T01:53:49.652Z,7.90
2023-02-13T01:56:05.318Z,7.90
2023-02-13T01:58:09.940Z,7.90
2023-02-13T02:00:15.842Z,7.90
2023-02-13T02:02:21.820Z,7.90
2023-02-13T02:04:39.539Z,7.90
2023-02-13T02:06:51.770Z,7.90
2023-02-13T02:09:05.890Z,7.90
2023-02-13T02:11:20.598Z,7.80
2023-02-13T02:13:22.742Z,7.90
2023-02-13T02:15:27.319Z,7.80
2023-02-13T02:17:29.238Z,7.80
2023-02-13T02:19:55.112Z,7.80
2023-02-13T02:22:35.756Z,7.70
2023-02-13T02:25:03.899Z,7.80
2023-02-13T02:27:36.112Z,7.70
2023-02-13T02:29:46.599Z,7.70
2023-02-13T02:32:11.164Z,7.70
2023-02-13T02:34:33.929Z,7.70
2023-02-13T02:37:08.693Z,7.70
2023-02-13T02:39:36.374Z,7.70
2023-02-13T02:42:07.232Z,7.70
2023-02-13T02:44:21.483Z,7.70
2023-02-13T02:47:13.446Z,7.70
2023-02-13T02:49:35.813Z,7.70
2023-02-13T02:51:43.249Z,7.70
2023-02-13T02:54:33.716Z,7.70
2023-02-13T02:56:46.706Z,7.70
2023-02-13T02:59:15.798Z,7.70
2023-02-13T03:01:41.056Z,7.70
2023-02-13T03:04:01.684Z,7.70
2023-02-13T03:06:14.697Z,7.60
2023-02-13T03:08:37.594Z,7.60
2023-02-13T03:10:58.368Z,7.60
2023-02-13T03:13:25.301Z,7.60
2023-02-13T03:15:28.854Z,7.70
2023-02-13T03:17:50.333Z,7.70
2023-02-13T03:20:19.501Z,7.70
2023-02-13T03:22:51.916Z,7.70
2023-02-13T03:25:35.931Z,7.70
2023-02-13T03:28:02.554Z,7.70
2023-02-13T03:30:30.141Z,7.70
2023-02-13T03:32:46.213Z,7.60
2023-02-13T03:35:15.787Z,7.60
2023-02-13T03:37:42.614Z,7.60
2023-02-13T03:40:05.271Z,7.60
2023-02-13T03:42:29.189Z,7.60
2023-02-13T03:44:38.765Z,7.60
2023-02-13T03:46:45.429Z,7.60
2023-02-13T03:49:06.926Z,7.60
2023-02-13T03:51:12.478Z,7.60
2023-02-13T03:53:15.927Z,7.60
2023-02-13T03:55:57.490Z,7.50
2023-02-13T03:58:23.679Z,7.60
2023-02-13T04:00:29.202Z,7.50
2023-02-13T04:02:34.481Z,7.50
2023-02-13T04:05:14.965Z,7.50
2023-02-13T04:07:32.139Z,7.50
2023-02-13T04:09:38.732Z,7.50
2023-02-13T04:12:06.625Z,7.50
2023-02-13T04:14:17.735Z,7.50
2023-02-13T04:16:32.772Z,7.50
2023-02-13T04:18:35.023Z,7.50
2023-02-13T04:20:37.800Z,7.50
2023-02-13T04:22:47.757Z,7.50
2023-02-13T04:24:49.682Z,7.50
2023-02-13T04:26:54.769Z,7.50
2023-02-13T04:28:56.435Z,7.50
2023-02-13T04:30:58.773Z,7.50
2023-02-13T04:33:00.722Z,7.40
2023-02-13T04:35:02.567Z,7.40
2023-02-13T04:37:06.418Z,7.40
2023-02-13T04:39:08.140Z,7.40
2023-02-13T04:41:09.941Z,7.40
2023-02-13T04:43:13.871Z,7.40
2023-02-13T04:45:16.055Z,7.40
2023-02-13T04:47:17.810Z,7.30
2023-02-13T04:49:19.500Z,7.30
2023-02-13T04:51:21.267Z,7.30
2023-02-13T04:53:22.951Z,7.30
2023-02-13T04:55:26.264Z,7.30
2023-02-13T04:57:27.917Z,7.30
2023-02-13T04:59:30.034Z,7.30
2023-02-13T05:01:31.786Z,7.30
2023-02-13T05:03:33.510Z,7.30
2023-02-13T05:05:36.384Z,7.30
2023-02-13T05:07:38.276Z,7.30
2023-02-13T05:09:41.536Z,7.30
2023-02-13T05:11:43.522Z,7.30
2023-02-13T05:13:45.224Z,7.30
2023-02-13T05:15:48.289Z,7.30
2023-02-13T05:17:50.524Z,7.30
2023-02-13T05:19:57.609Z,7.30
2023-02-13T05:22:17.721Z,7.30
2023-02-13T05:24:20.609Z,7.20
2023-02-13T05:26:22.493Z,7.20
2023-02-13T05:28:43.132Z,7.20
2023-02-13T05:30:52.631Z,7.20
2023-02-13T05:32:55.031Z,7.20
2023-02-13T05:35:06.592Z,7.20
2023-02-13T05:37:08.413Z,7.20
2023-02-13T05:39:11.932Z,7.20
2023-02-13T05:41:13.633Z,7.10
2023-02-13T05:43:15.498Z,7.10
2023-02-13T05:45:17.279Z,7.10
2023-02-13T05:47:21.216Z,7.10
2023-02-13T05:49:25.624Z,7.10
2023-02-13T05:51:27.401Z,7.10
2023-02-13T05:53:29.865Z,7.10
2023-02-13T05:55:31.624Z,7.10
2023-02-13T05:57:35.694Z,7.10
2023-02-13T05:59:39.336Z,7.10
2023-02-13T06:01:41.189Z,7.10
2023-02-13T06:03:42.959Z,7.10
2023-02-13T06:05:44.883Z,7.10
2023-02-13T06:07:46.599Z,7.10
2023-02-13T06:09:48.285Z,7.10
2023-02-13T06:11:49.992Z,7.10
2023-02-13T06:13:51.706Z,7.10
2023-02-13T06:15:53.714Z,7.10
2023-02-13T06:17:55.519Z,7.10
2023-02-13T06:19:57.301Z,7.10
2023-02-13T06:21:59.146Z,7.10
2023-02-13T06:24:00.820Z,7.10
2023-02-13T06:26:04.752Z,7.10
2023-02-13T06:28:06.818Z,7.10
2023-02-13T06:30:09.154Z,7.10
2023-02-13T06:32:13.156Z,7.10
2023-02-13T06:34:14.889Z,7.10
2023-02-13T06:36:16.746Z,7.10
2023-02-13T06:38:21.495Z,7.10
2023-02-13T06:40:25.741Z,7.10
2023-02-13T06:42:30.040Z,7.10
2023-02-13T06:44:31.747Z,7.10
2023-02-13T06:46:33.701Z,7.10
2023-02-13T06:48:36.539Z,7.10
2023-02-13T06:50:38.311Z,7.10
2023-02-13T06:52:40.200Z,7.20
2023-02-13T06:54:47.745Z,7.10
2023-02-13T06:56:49.855Z,7.10
2023-02-13T06:58:53.145Z,7.10
2023-02-13T07:00:57.882Z,7.10
2023-02-13T07:03:05.332Z,7.10
2023-02-13T07:05:09.748Z,7.10
2023-02-13T07:07:11.532Z,7.10
2023-02-13T07:09:13.444Z,7.00
2023-02-13T07:11:23.341Z,7.10
2023-02-13T07:13:25.078Z,7.00
2023-02-13T07:15:26.803Z,7.00
2023-02-13T07:17:31.273Z,7.00
2023-02-13T07:19:33.416Z,7.00
2023-02-13T07:21:35.774Z,7.00
2023-02-13T07:23:37.502Z,7.10
2023-02-13T07:25:39.259Z,7.10
2023-02-13T07:27:43.100Z,7.00
2023-02-13T07:29:44.799Z,7.10
2023-02-13T07:31:46.674Z,7.10
2023-02-13T07:33:51.362Z,7.10
2023-02-13T07:35:53.310Z,7.10
2023-02-13T07:37:55.416Z,7.10
2023-02-13T07:39:57.309Z,7.10
2023-02-13T07:41:59.024Z,7.20
2023-02-13T07:44:04.162Z,7.20
2023-02-13T07:46:06.523Z,7.20
2023-02-13T07:48:08.210Z,7.20
2023-02-13T07:50:10.634Z,7.20
2023-02-13T07:52:12.297Z,7.30
2023-02-13T07:54:14.165Z,7.30
2023-02-13T07:56:15.892Z,7.40
2023-02-13T07:58:17.762Z,7.40
2023-02-13T08:00:20.337Z,7.40
2023-02-13T08:02:21.991Z,7.50
2023-02-13T08:04:26.086Z,7.50
2023-02-13T08:06:28.048Z,7.50
2023-02-13T08:08:29.858Z,7.60
2023-02-13T08:10:50.426Z,7.60
2023-02-13T08:12:53.228Z,7.70
2023-02-13T08:14:54.949Z,7.70
2023-02-13T08:17:00.671Z,7.80
2023-02-13T08:19:02.417Z,7.80
2023-02-13T08:21:04.643Z,7.90
2023-02-13T08:23:11.225Z,7.90
2023-02-13T08:25:13.661Z,8.00
2023-02-13T08:27:16.216Z,8.00
2023-02-13T08:29:18.015Z,8.00
2023-02-13T08:31:20.494Z,8.10
2023-02-13T08:33:24.202Z,8.10
2023-02-13T08:35:31.712Z,8.10
2023-02-13T08:37:33.684Z,8.20
2023-02-13T08:39:35.408Z,8.20
2023-02-13T08:41:37.164Z,8.20
2023-02-13T08:43:39.067Z,8.20
2023-02-13T08:45:40.882Z,8.30
2023-02-13T08:47:42.878Z,8.30
2023-02-13T08:49:52.161Z,8.40
2023-02-13T08:51:53.919Z,8.40
2023-02-13T08:53:58.274Z,8.50
2023-02-13T08:56:02.566Z,8.50
2023-02-13T08:58:08.960Z,8.60
2023-02-13T09:00:13.525Z,8.70
2023-02-13T09:02:15.308Z,8.80
2023-02-13T09:04:18.274Z,8.80
2023-02-13T09:06:20.036Z,8.90
2023-02-13T09:08:21.690Z,9.00
2023-02-13T09:10:23.330Z,9.10
2023-02-13T09:12:25.005Z,9.10
2023-02-13T09:14:26.881Z,9.20
2023-02-13T09:16:30.838Z,9.30
2023-02-13T09:18:33.089Z,9.30
2023-02-13T09:20:36.056Z,9.30
2023-02-13T09:22:41.391Z,9.40
2023-02-13T09:24:43.101Z,9.50
2023-02-13T09:26:44.777Z,9.50
2023-02-13T09:28:46.606Z,9.60
2023-02-13T09:30:49.107Z,9.70
2023-02-13T09:32:52.233Z,9.80
2023-02-13T09:34:54.146Z,9.80
2023-02-13T09:37:00.476Z,9.90
2023-02-13T09:39:02.613Z,10.00
2023-02-13T09:41:32.319Z,10.10
2023-02-13T09:43:53.919Z,10.20
2023-02-13T09:46:00.914Z,10.30
2023-02-13T09:48:03.606Z,10.30
2023-02-13T09:50:14.869Z,10.30
2023-02-13T09:52:16.906Z,10.50
2023-02-13T09:54:19.147Z,10.50
2023-02-13T09:56:34.055Z,10.60
2023-02-13T09:58:42.936Z,10.70
2023-02-13T10:00:50.650Z,10.80
2023-02-13T10:02:58.611Z,10.90
2023-02-13T10:05:03.174Z,11.10
2023-02-13T10:07:15.006Z,11.20
2023-02-13T10:09:53.658Z,11.30
2023-02-13T10:12:22.196Z,11.50
2023-02-13T10:14:56.020Z,11.60
2023-02-13T10:17:07.637Z,11.70
2023-02-13T10:19:23.908Z,11.80
2023-02-13T10:21:30.542Z,11.90
2023-02-13T10:23:44.611Z,12.00
2023-02-13T10:25:58.647Z,12.00
2023-02-13T10:28:14.270Z,12.10
2023-02-13T10:30:23.147Z,12.20
2023-02-13T10:32:32.001Z,12.30
2023-02-13T10:34:41.332Z,12.40
2023-02-13T10:36:48.997Z,12.50
2023-02-13T10:39:01.845Z,12.50
2023-02-13T10:41:20.755Z,12.70
2023-02-13T10:43:29.899Z,12.80
2023-02-13T10:45:57.476Z,12.90
2023-02-13T10:48:02.402Z,13.00
2023-02-13T10:50:24.833Z,13.10
2023-02-13T10:52:38.430Z,13.30
2023-02-13T10:55:10.693Z,13.40
2023-02-13T10:57:30.421Z,13.50
2023-02-13T10:59:59.326Z,13.60
2023-02-13T11:02:19.262Z,13.80
2023-02-13T11:04:21.269Z,13.90
2023-02-13T11:06:23.048Z,14.00
2023-02-13T11:08:30.694Z,14.10
2023-02-13T11:10:32.451Z,14.10
2023-02-13T11:12:36.585Z,14.20
2023-02-13T11:14:39.020Z,14.20
2023-02-13T11:17:01.034Z,14.20
2023-02-13T11:19:02.791Z,14.30
2023-02-13T11:21:22.870Z,14.30
2023-02-13T11:23:30.700Z,14.30
2023-02-13T11:25:33.083Z,14.30
2023-02-13T11:27:38.280Z,14.30
2023-02-13T11:29:58.713Z,14.30
2023-02-13T11:32:15.749Z,14.40
2023-02-13T11:34:30.780Z,14.40
2023-02-13T11:36:35.282Z,14.50
2023-02-13T11:38:37.292Z,14.50
2023-02-13T11:40:39.450Z,14.60
2023-02-13T11:42:42.680Z,14.70
2023-02-13T11:44:53.566Z,14.80
2023-02-13T11:47:00.483Z,14.80
2023-02-13T11:49:06.599Z,14.90
2023-02-13T11:51:08.360Z,15.00
2023-02-13T11:53:27.085Z,15.10
2023-02-13T11:55:40.049Z,15.20
2023-02-13T11:57:41.715Z,15.30
2023-02-13T11:59:45.505Z,15.30
2023-02-13T12:02:00.996Z,15.40
2023-02-13T12:04:06.673Z,15.50
2023-02-13T12:06:15.649Z,15.60
2023-02-13T12:08:17.535Z,15.70
2023-02-13T12:10:25.836Z,15.80
2023-02-13T12:12:37.345Z,15.90
2023-02-13T12:14:43.290Z,15.90
2023-02-13T12:16:54.950Z,16.00
2023-02-13T12:19:00.097Z,16.00
2023-02-13T12:21:01.838Z,16.10
2023-02-13T12:23:24.211Z,16.10
2023-02-13T12:25:46.269Z,16.20
2023-02-13T12:28:09.351Z,16.30
2023-02-13T12:30:33.304Z,16.30
2023-02-13T12:33:03.038Z,16.40
2023-02-13T12:35:18.895Z,16.50
2023-02-13T12:37:57.518Z,16.50
2023-02-13T12:40:26.288Z,16.60
2023-02-13T12:42:52.056Z,16.70
2023-02-13T12:44:59.541Z,16.80
2023-02-13T12:47:27.296Z,16.90
2023-02-13T12:49:50.591Z,17.00
2023-02-13T12:52:21.788Z,17.10
2023-02-13T12:54:45.264Z,17.20
2023-02-13T12:57:18.143Z,17.30
2023-02-13T12:59:30.361Z,17.30
2023-02-13T13:02:15.188Z,17.40
2023-02-13T13:04:44.285Z,17.50
2023-02-13T13:07:22.682Z,17.60
2023-02-13T13:09:42.860Z,17.60
2023-02-13T13:12:15.098Z,17.70
2023-02-13T13:14:16.870Z,17.80
2023-02-13T13:16:48.789Z,17.80
2023-02-13T13:19:18.972Z,17.90
2023-02-13T13:21:30.087Z,18.00
2023-02-13T13:23:48.127Z,18.00
2023-02-13T13:25:55.740Z,18.10
2023-02-13T13:28:11.901Z,18.10
2023-02-13T13:30:18.918Z,18.20
2023-02-13T13:32:22.712Z,18.40
2023-02-13T13:34:27.129Z,18.40
2023-02-13T13:36:47.681Z,18.50
2023-02-13T13:39:37.277Z,18.60
2023-02-13T13:41:54.314Z,18.70
2023-02-13T13:44:07.953Z,18.80
2023-02-13T13:46:21.145Z,18.80
2023-02-13T13:48:59.863Z,18.90
2023-02-13T13:51:04.431Z,19.00
2023-02-13T13:53:11.732Z,19.00
2023-02-13T13:55:56.386Z,19.10
2023-02-13T13:58:06.557Z,19.10
2023-02-13T14:00:14.177Z,19.10
2023-02-13T14:02:19.297Z,19.10
2023-02-13T14:04:33.301Z,19.10
2023-02-13T14:06:52.504Z,19.10
2023-02-13T14:08:54.641Z,19.10
2023-02-13T14:11:02.309Z,19.10
2023-02-13T14:13:04.256Z,19.10
2023-02-13T14:15:26.585Z,19.10
2023-02-13T14:17:46.518Z,19.00
2023-02-13T14:19:52.874Z,19.00
2023-02-13T14:22:18.089Z,18.90
2023-02-13T14:24:24.797Z,18.90
2023-02-13T14:26:39.117Z,18.90
2023-02-13T14:28:50.807Z,18.90
2023-02-13T14:31:04.453Z,18.80
2023-02-13T14:33:10.808Z,18.90
2023-02-13T14:35:28.966Z,18.90
2023-02-13T14:37:37.704Z,19.00
2023-02-13T14:39:42.215Z,19.10
2023-02-13T14:42:21.014Z,19.10
2023-02-13T14:44:33.880Z,19.10
2023-02-13T14:46:41.092Z,19.10
2023-02-13T14:48:53.019Z,19.20
2023-02-13T14:50:57.646Z,19.20
2023-02-13T14:53:03.904Z,19.30
2023-02-13T14:55:28.914Z,19.30
2023-02-13T14:57:50.240Z,19.40
2023-02-13T15:00:17.869Z,19.40
2023-02-13T15:02:25.096Z,19.50
2023-02-13T15:04:38.481Z,19.50
2023-02-13T15:06:43.156Z,19.60
2023-02-13T15:08:51.618Z,19.60
2023-02-13T15:10:55.859Z,19.70
2023-02-13T15:13:00.150Z,19.70
2023-02-13T15:15:17.524Z,19.80
2023-02-13T15:17:26.590Z,19.90
2023-02-13T15:19:29.061Z,20.00
2023-02-13T15:21:34.082Z,20.00
2023-02-13T15:23:38.334Z,20.10
2023-02-13T15:25:42.470Z,20.20
2023-02-13T15:27:46.629Z,20.20
2023-02-13T15:30:26.941Z,20.20
2023-02-13T15:32:34.249Z,20.20
2023-02-13T15:34:38.014Z,20.20
2023-02-13T15:36:42.002Z,20.20
2023-02-13T15:38:44.070Z,20.20
2023-02-13T15:40:45.781Z,20.10
2023-02-13T15:42:47.576Z,20.10
2023-02-13T15:44:59.808Z,20.00
2023-02-13T15:47:18.912Z,20.00
2023-02-13T15:49:25.770Z,19.90
2023-02-13T15:51:30.804Z,19.70
2023-02-13T15:53:32.635Z,19.60
2023-02-13T15:55:36.589Z,19.50
2023-02-13T15:57:39.136Z,19.30
2023-02-13T15:59:41.564Z,19.20
2023-02-13T16:01:46.576Z,19.10
2023-02-13T16:03:59.887Z,18.90
2023-02-13T16:06:02.436Z,18.70
2023-02-13T16:08:35.989Z,18.60
2023-02-13T16:10:41.223Z,18.50
2023-02-13T16:12:47.592Z,18.30
2023-02-13T16:14:59.850Z,18.20
2023-02-13T16:17:07.205Z,18.00
2023-02-13T16:19:28.776Z,17.80
2023-02-13T16:21:34.284Z,17.70
2023-02-13T16:23:36.842Z,17.50
2023-02-13T16:25:40.520Z,17.40
2023-02-13T16:27:55.449Z,17.30
2023-02-13T16:30:02.093Z,17.20
2023-02-13T16:32:14.846Z,17.00
2023-02-13T16:34:31.826Z,17.00
2023-02-13T16:36:34.585Z,16.80
2023-02-13T16:38:43.631Z,16.70
2023-02-13T16:40:46.186Z,16.60
2023-02-13T16:42:48.127Z,16.40
2023-02-13T16:44:52.187Z,16.30
2023-02-13T16:46:55.045Z,16.20
2023-02-13T16:48:57.146Z,16.10
2023-02-13T16:50:59.514Z,16.00
2023-02-13T16:53:07.012Z,15.90
2023-02-13T16:55:16.962Z,15.90
2023-02-13T16:57:37.227Z,15.70
2023-02-13T16:59:47.744Z,15.70
2023-02-13T17:02:25.556Z,15.50
2023-02-13T17:04:30.231Z,15.40
2023-02-13T17:06:32.174Z,15.30
2023-02-13T17:08:34.000Z,15.20
2023-02-13T17:10:38.328Z,15.00
2023-02-13T17:12:42.551Z,14.90
2023-02-13T17:14:44.392Z,14.80
2023-02-13T17:16:47.925Z,14.80
2023-02-13T17:18:50.364Z,14.70
2023-02-13T17:20:52.578Z,14.50
2023-02-13T17:23:03.794Z,14.40
2023-02-13T17:25:18.880Z,14.40
2023-02-13T17:27:26.659Z,14.30
2023-02-13T17:29:30.731Z,14.20
2023-02-13T17:31:36.279Z,14.10
2023-02-13T17:33:40.174Z,14.00
2023-02-13T17:35:42.182Z,14.00
2023-02-13T17:37:44.767Z,13.90
2023-02-13T17:39:47.520Z,13.80
2023-02-13T17:41:49.442Z,13.80
2023-02-13T17:43:51.255Z,13.70
2023-02-13T17:45:53.321Z,13.70
2023-02-13T17:47:58.813Z,13.60
2023-02-13T17:50:09.109Z,13.50
2023-02-13T17:52:21.461Z,13.50
2023-02-13T17:54:25.162Z,13.50
2023-02-13T17:56:27.132Z,13.40
2023-02-13T17:58:32.170Z,13.30
2023-02-13T18:00:36.509Z,13.30
2023-02-13T18:02:38.235Z,13.20
2023-02-13T18:04:42.303Z,13.20
2023-02-13T18:06:44.133Z,13.20
2023-02-13T18:08:46.042Z,13.10
2023-02-13T18:10:49.114Z,13.10
2023-02-13T18:12:54.826Z,13.00
2023-02-13T18:14:56.654Z,13.00
2023-02-13T18:16:59.134Z,13.00
2023-02-13T18:19:01.638Z,13.00
2023-02-13T18:21:06.083Z,13.00
2023-02-13T18:23:08.504Z,12.90
2023-02-13T18:25:11.126Z,12.90
2023-02-13T18:27:16.516Z,12.90
2023-02-13T18:29:18.315Z,12.80
2023-02-13T18:31:25.124Z,12.80
2023-02-13T18:33:27.305Z,12.80
2023-02-13T18:35:29.102Z,12.70
2023-02-13T18:37:30.882Z,12.70
2023-02-13T18:39:34.978Z,12.60
2023-02-13T18:41:36.816Z,12.60
2023-02-13T18:43:39.544Z,12.60
2023-02-13T18:45:41.462Z,12.50
2023-02-13T18:47:43.245Z,12.50
2023-02-13T18:49:50.353Z,12.40
2023-02-13T18:51:52.162Z,12.50
2023-02-13T18:53:53.829Z,12.40
2023-02-13T18:56:06.552Z,12.30
2023-02-13T18:58:08.403Z,12.30
2023-02-13T19:00:10.986Z,12.20
2023-02-13T19:02:13.022Z,12.20
2023-02-13T19:04:14.958Z,12.10
2023-02-13T19:06:20.173Z,12.00
2023-02-13T19:08:23.652Z,12.00
2023-02-13T19:10:25.476Z,12.00
2023-02-13T19:12:29.152Z,11.90
2023-02-13T19:14:30.926Z,11.90
2023-02-13T19:16:36.307Z,11.80
2023-02-13T19:18:42.785Z,11.80
2023-02-13T19:20:44.628Z,11.80
2023-02-13T19:22:46.969Z,11.70
2023-02-13T19:24:49.159Z,11.70
2023-02-13T19:26:52.536Z,11.60
2023-02-13T19:28:55.821Z,11.60
2023-02-13T19:31:08.379Z,11.50
2023-02-13T19:33:10.463Z,11.50
2023-02-13T19:35:15.115Z,11.40
2023-02-13T19:37:18.335Z,11.30
2023-02-13T19:39:20.398Z,11.30
2023-02-13T19:41:27.370Z,11.30
2023-02-13T19:43:30.214Z,11.20
2023-02-13T19:45:34.960Z,11.20
2023-02-13T19:47:37.155Z,11.10
2023-02-13T19:49:38.932Z,11.10
2023-02-13T19:51:42.401Z,11.10
2023-02-13T19:53:44.241Z,11.10
2023-02-13T19:55:46.080Z,11.00
2023-02-13T19:57:50.780Z,11.00
2023-02-13T19:59:52.667Z,11.10
2023-02-13T20:01:54.587Z,11.00
2023-02-13T20:03:59.745Z,11.00
2023-02-13T20:06:06.354Z,10.90
2023-02-13T20:08:09.839Z,10.80
2023-02-13T20:10:11.865Z,10.80
2023-02-13T20:12:15.390Z,10.70
2023-02-13T20:14:17.177Z,10.60
2023-02-13T20:16:19.058Z,10.60
2023-02-13T20:18:22.994Z,10.60
2023-02-13T20:20:29.804Z,10.50
2023-02-13T20:22:31.789Z,10.40
2023-02-13T20:24:36.813Z,10.40
2023-02-13T20:26:41.961Z,10.30
2023-02-13T20:28:45.795Z,10.30
2023-02-13T20:30:47.673Z,10.20
2023-02-13T20:32:52.147Z,10.20
2023-02-13T20:34:59.767Z,10.20
2023-02-13T20:37:01.803Z,10.10
2023-02-13T20:39:06.026Z,10.10
2023-02-13T20:41:19.509Z,10.00
2023-02-13T20:43:38.589Z,10.00
2023-02-13T20:45:40.380Z,10.00
2023-02-13T20:47:43.972Z,9.90
2023-02-13T20:49:48.273Z,9.80
2023-02-13T20:51:53.179Z,9.80
2023-02-13T20:53:55.555Z,9.80
2023-02-13T20:56:10.453Z,9.70
2023-02-13T20:58:12.151Z,9.70
2023-02-13T21:00:16.318Z,9.70
2023-02-13T21:02:19.514Z,9.70
2023-02-13T21:04:23.618Z,9.60
2023-02-13T21:06:28.516Z,9.60
2023-02-13T21:08:30.279Z,9.60
2023-02-13T21:10:39.111Z,9.60
2023-02-13T21:12:40.803Z,9.50
2023-02-13T21:14:42.694Z,9.50
2023-02-13T21:16:44.832Z,9.50
2023-02-13T21:18:54.396Z,9.50
2023-02-13T21:20:59.753Z,9.50
2023-02-13T21:23:10.992Z,9.50
2023-02-13T21:25:14.920Z,9.50
2023-02-13T21:27:18.315Z,9.50
2023-02-13T21:29:20.180Z,9.50
2023-02-13T21:31:30.285Z,9.50
2023-02-13T21:33:31.971Z,9.40
2023-02-13T21:35:33.627Z,9.40
2023-02-13T21:37:40.628Z,9.40
2023-02-13T21:39:42.364Z,9.40
2023-02-13T21:41:45.288Z,9.40
2023-02-13T21:43:48.760Z,9.40
2023-02-13T21:45:50.517Z,9.40
2023-02-13T21:47:56.450Z,9.40
2023-02-13T21:49:58.207Z,9.40
2023-02-13T21:51:59.937Z,9.40
2023-02-13T21:54:01.969Z,9.30
2023-02-13T21:56:05.358Z,9.40
2023-02-13T21:58:07.143Z,9.30
2023-02-13T22:00:10.797Z,9.30
2023-02-13T22:02:15.336Z,9.30
2023-02-13T22:04:20.061Z,9.30
2023-02-13T22:06:23.653Z,9.30
2023-02-13T22:08:25.484Z,9.30
2023-02-13T22:10:30.544Z,9.30
2023-02-13T22:12:34.513Z,9.30
2023-02-13T22:14:38.551Z,9.30
2023-02-13T22:16:43.740Z,9.30
2023-02-13T22:18:45.675Z,9.30
2023-02-13T22:20:47.431Z,9.30
2023-02-13T22:22:49.223Z,9.30
2023-02-13T22:24:52.947Z,9.30
2023-02-13T22:26:55.034Z,9.20
2023-02-13T22:29:01.762Z,9.20
2023-02-13T22:31:09.204Z,9.20
2023-02-13T22:33:11.071Z,9.20
2023-02-13T22:35:12.819Z,9.20
2023-02-13T22:37:15.802Z,9.10
2023-02-13T22:39:17.496Z,9.10
2023-02-13T22:41:26.647Z,9.00
2023-02-13T22:43:30.780Z,9.00
2023-02-13T22:45:36.594Z,9.00
2023-02-13T22:47:38.348Z,8.90
2023-02-13T22:49:40.170Z,8.90
2023-02-13T22:51:41.879Z,8.90
2023-02-13T22:53:47.579Z,8.90
2023-02-13T22:55:49.228Z,8.80
2023-02-13T22:57:56.107Z,8.80
2023-02-13T22:59:57.798Z,8.80
2023-02-13T23:02:03.204Z,8.80
2023-02-13T23:04:05.159Z,8.80
2023-02-13T23:06:08.940Z,8.80
2023-02-13T23:08:10.817Z,8.80
2023-02-13T23:10:12.744Z,8.80
2023-02-13T23:12:33.933Z,8.80
2023-02-13T23:14:35.989Z,8.80
2023-02-13T23:16:58.287Z,8.80
2023-02-13T23:19:02.449Z,8.80
2023-02-13T23:21:05.818Z,8.80
2023-02-13T23:23:09.155Z,8.80
2023-02-13T23:25:13.609Z,8.70
2023-02-13T23:27:16.042Z,8.70
2023-02-13T23:29:17.821Z,8.60
2023-02-13T23:31:19.610Z,8.70
2023-02-13T23:33:21.340Z,8.60
2023-02-13T23:35:23.491Z,8.60
2023-02-13T23:37:25.581Z,8.60
2023-02-13T23:39:28.741Z,8.50
2023-02-13T23:41:30.732Z,8.50
2023-02-13T23:43:32.496Z,8.50
2023-02-13T23:45:36.612Z,8.50
2023-02-13T23:47:40.895Z,8.50
2023-02-13T23:49:42.566Z,8.40
2023-02-13T23:51:44.406Z,8.40
2023-02-13T23:53:46.057Z,8.40
2023-02-13T23:55:48.803Z,8.40
2023-02-13T23:57:51.984Z,8.30
2023-02-13T23:59:53.670Z,8.30
